Huvudsida
METAR-TAF:

METAR-TAF

Flygplatser :

Ronneby Airport

Ronneby, Sverige

latitud: 56-16N, longitud: 015-17E, höjd: 58 m

Aktuellt väderrapport

Denna rapport gjordes för 12 minuter sedan, klockan 13:20 UTC
Vind 10 kt från syd
Temperatur 15°C
Fuktighet 77%
Tryck 1016 hPa
Sikt 10 km eller mer
Inga moln under 1 500 m eller inga cumulonimbus

METAR: ESDF 151320Z 18010KT CAVOK 15/11 Q1016

Tid: 15:32 (13:32 UTC)

Väderprognos

Denna rapport gjordes för 2 timmar och 2 minuter sedan, klockan 11:30 UTC
Prognos gäller från 15 kl. 12 UTC till 15 kl. 21 UTC
Vind 10 kt från syd/sydost
Sikt 10 km eller mer
Inga moln under 1 500 m eller inga cumulonimbus
Sannolikhet 40%
från 15 kl. 18 UTC till 15 kl. 21 UTC
Sikt: 4000 m
fuktdis

TAF: ESDF 151130Z 1512/1521 16010KT CAVOK PROB40 1518/1521 BR 4000 RMK MIL

Aktuella väderrapporter och prognoser från 4000 flygplatser (METAR- och TAF-rapporter).

De tillgängliga stationerna syns som gula och röda prickar på kartan.

För musen över prickarna för att se namnen på stationerna.

Klicka sedan för att få väderrapporter och prognoser.

För att ändra kartan: Klicka på de gröna knapparna med ett svart kors på för att zooma in; den gröna knappen med ett streck på för att zooma ut; eller på de gröna pilarna för angränsande kartor.


METAR-TAF: